createdAt,value
2023-05-04T00:01:25.667Z,100989.53
2023-05-04T00:03:52.671Z,100988.38
2023-05-04T00:06:19.295Z,100989.00
2023-05-04T00:08:45.997Z,100994.13
2023-05-04T00:11:12.584Z,100997.59
2023-05-04T00:13:38.967Z,100994.53
2023-05-04T00:16:05.464Z,100986.03
2023-05-04T00:18:32.056Z,100983.63
2023-05-04T00:20:58.495Z,100985.22
2023-05-04T00:23:24.936Z,100976.22
2023-05-04T00:25:51.363Z,100972.25
2023-05-04T00:28:17.763Z,100973.47
2023-05-04T00:30:44.408Z,100972.44
2023-05-04T00:33:10.987Z,100974.22
2023-05-04T00:35:37.518Z,100968.38
2023-05-04T00:38:04.941Z,100959.63
2023-05-04T00:40:31.518Z,100955.31
2023-05-04T00:42:57.909Z,100948.72
2023-05-04T00:45:24.331Z,100953.50
2023-05-04T00:47:50.874Z,100953.19
2023-05-04T00:50:17.333Z,100954.09
2023-05-04T00:52:43.798Z,100960.84
2023-05-04T00:55:10.898Z,100954.19
2023-05-04T00:57:37.304Z,100954.09
2023-05-04T01:00:03.997Z,100952.34
2023-05-04T01:02:30.975Z,100947.56
2023-05-04T01:04:57.382Z,100944.88
2023-05-04T01:07:28.768Z,100946.66
2023-05-04T01:10:05.193Z,100944.50
2023-05-04T01:12:38.849Z,100942.69
2023-05-04T01:15:05.587Z,100934.47
2023-05-04T01:17:32.049Z,100938.56
2023-05-04T01:19:58.509Z,100935.19
2023-05-04T01:22:24.938Z,100940.94
2023-05-04T01:24:53.574Z,100934.66
2023-05-04T01:27:38.660Z,100951.44
2023-05-04T01:30:31.557Z,100949.22
2023-05-04T01:32:58.084Z,100951.44
2023-05-04T01:35:24.651Z,100946.31
2023-05-04T01:37:51.204Z,100946.94
2023-05-04T01:40:17.956Z,100948.59
2023-05-04T01:42:44.344Z,100941.84
2023-05-04T01:45:11.718Z,100950.84
2023-05-04T01:47:38.185Z,100943.69
2023-05-04T01:50:05.799Z,100948.66
2023-05-04T01:52:32.412Z,100944.50
2023-05-04T01:54:58.839Z,100951.44
2023-05-04T01:57:25.281Z,100951.44
2023-05-04T01:59:52.518Z,100951.53
2023-05-04T02:02:19.012Z,100948.59
2023-05-04T02:04:45.453Z,100953.06
2023-05-04T02:07:13.827Z,100955.84
2023-05-04T02:09:42.423Z,100956.84
2023-05-04T02:12:09.357Z,100954.09
2023-05-04T02:14:36.392Z,100946.66
2023-05-04T02:17:03.858Z,100946.53
2023-05-04T02:19:30.747Z,100944.28
2023-05-04T02:21:57.190Z,100942.59
2023-05-04T02:24:23.590Z,100947.59
2023-05-04T02:26:49.996Z,100941.03
2023-05-04T02:29:16.383Z,100944.59
2023-05-04T02:31:42.936Z,100948.88
2023-05-04T02:34:09.474Z,100940.53
2023-05-04T02:36:41.023Z,100938.84
2023-05-04T02:39:07.994Z,100940.16
2023-05-04T02:41:34.400Z,100940.22
2023-05-04T02:44:01.184Z,100937.41
2023-05-04T02:46:27.747Z,100939.03
2023-05-04T02:48:54.162Z,100939.41
2023-05-04T02:51:20.637Z,100935.50
2023-05-04T02:53:47.224Z,100937.16
2023-05-04T02:56:13.592Z,100933.38
2023-05-04T02:58:39.986Z,100937.78
2023-05-04T03:01:06.462Z,100935.66
2023-05-04T03:03:32.965Z,100930.00
2023-05-04T03:05:59.434Z,100934.53
2023-05-04T03:08:25.905Z,100940.66
2023-05-04T03:10:52.371Z,100929.63
2023-05-04T03:13:18.930Z,100930.63
2023-05-04T03:15:45.472Z,100921.25
2023-05-04T03:18:12.234Z,100931.03
2023-05-04T03:20:38.795Z,100940.66
2023-05-04T03:23:07.100Z,100931.75
2023-05-04T03:25:33.564Z,100931.47
2023-05-04T03:28:00.112Z,100916.75
2023-05-04T03:30:26.698Z,100913.66
2023-05-04T03:32:56.689Z,100915.13
2023-05-04T03:35:25.170Z,100920.56
2023-05-04T03:37:54.109Z,100911.22
2023-05-04T03:40:22.961Z,100899.47
2023-05-04T03:42:54.432Z,100902.06
2023-05-04T03:45:22.134Z,100898.22
2023-05-04T03:47:48.622Z,100896.56
2023-05-04T03:50:15.255Z,100898.94
2023-05-04T03:52:42.485Z,100897.50
2023-05-04T03:55:10.343Z,100901.72
2023-05-04T03:57:36.817Z,100894.94
2023-05-04T04:00:03.680Z,100898.84
2023-05-04T04:02:41.599Z,100902.66
2023-05-04T04:05:10.061Z,100899.34
2023-05-04T04:07:38.731Z,100900.97
2023-05-04T04:10:05.857Z,100892.56
2023-05-04T04:12:32.639Z,100906.31
2023-05-04T04:14:59.057Z,100900.34
2023-05-04T04:17:25.473Z,100911.09
2023-05-04T04:19:51.893Z,100905.03
2023-05-04T04:22:18.333Z,100899.28
2023-05-04T04:24:44.708Z,100899.75
2023-05-04T04:27:11.067Z,100898.47
2023-05-04T04:29:37.589Z,100897.00
2023-05-04T04:32:04.252Z,100907.22
2023-05-04T04:34:30.674Z,100905.41
2023-05-04T04:36:57.555Z,100909.31
2023-05-04T04:39:24.513Z,100910.34
2023-05-04T04:41:51.147Z,100914.22
2023-05-04T04:44:17.626Z,100912.97
2023-05-04T04:46:45.709Z,100913.31
2023-05-04T04:49:12.963Z,100915.44
2023-05-04T04:51:41.722Z,100911.84
2023-05-04T04:54:08.080Z,100926.63
2023-05-04T04:56:34.541Z,100920.03
2023-05-04T04:59:01.025Z,100922.13
2023-05-04T05:01:27.603Z,100927.63
2023-05-04T05:03:54.148Z,100931.91
2023-05-04T05:06:21.079Z,100927.00
2023-05-04T05:08:47.496Z,100929.25
2023-05-04T05:11:13.977Z,100939.78
2023-05-04T05:13:40.456Z,100935.81
2023-05-04T05:16:06.951Z,100938.47
2023-05-04T05:18:33.496Z,100937.00
2023-05-04T05:21:00.744Z,100939.53
2023-05-04T05:23:27.635Z,100945.03
2023-05-04T05:25:54.109Z,100940.72
2023-05-04T05:28:20.601Z,100940.53
2023-05-04T05:30:47.992Z,100935.63
2023-05-04T05:33:14.555Z,100938.72
2023-05-04T05:35:41.105Z,100946.03
2023-05-04T05:38:07.635Z,100938.28
2023-05-04T05:40:34.105Z,100939.91
2023-05-04T05:43:00.720Z,100935.38
2023-05-04T05:45:27.217Z,100940.09
2023-05-04T05:47:53.728Z,100940.91
2023-05-04T05:50:20.336Z,100937.56
2023-05-04T05:52:46.870Z,100940.91
2023-05-04T05:55:13.280Z,100937.28
2023-05-04T05:57:39.753Z,100931.13
2023-05-04T06:00:06.840Z,100933.88
2023-05-04T06:02:38.634Z,100934.00
2023-05-04T06:05:05.606Z,100928.25
2023-05-04T06:07:32.145Z,100926.03
2023-05-04T06:09:58.677Z,100928.78
2023-05-04T06:12:25.218Z,100922.50
2023-05-04T06:14:51.770Z,100916.25
2023-05-04T06:17:19.118Z,100921.63
2023-05-04T06:19:47.525Z,100918.56
2023-05-04T06:22:15.256Z,100921.81
2023-05-04T06:24:41.717Z,100926.78
2023-05-04T06:27:08.698Z,100925.47
2023-05-04T06:29:36.372Z,100920.28
2023-05-04T06:32:03.054Z,100919.78
2023-05-04T06:34:29.682Z,100919.59
2023-05-04T06:36:56.700Z,100925.91
2023-05-04T06:39:23.143Z,100924.66
2023-05-04T06:41:49.549Z,100925.47
2023-05-04T06:44:18.935Z,100931.38
2023-05-04T06:46:45.873Z,100924.03
2023-05-04T06:49:12.398Z,100924.03
2023-05-04T06:51:39.477Z,100928.13
2023-05-04T06:54:06.175Z,100929.75
2023-05-04T06:56:32.846Z,100930.56
2023-05-04T06:58:59.300Z,100919.06
2023-05-04T07:01:26.070Z,100921.56
2023-05-04T07:03:52.679Z,100926.25
2023-05-04T07:06:19.614Z,100919.72
2023-05-04T07:08:46.160Z,100918.47
2023-05-04T07:11:12.602Z,100923.03
2023-05-04T07:13:39.106Z,100919.47
2023-05-04T07:16:09.229Z,100920.88
2023-05-04T07:18:36.125Z,100917.38
2023-05-04T07:21:21.748Z,100921.66
2023-05-04T07:23:48.919Z,100918.91
2023-05-04T07:26:15.483Z,100915.75
2023-05-04T07:28:43.768Z,100907.97
2023-05-04T07:31:12.829Z,100902.53
2023-05-04T07:33:39.302Z,100901.59
2023-05-04T07:36:05.865Z,100900.78
2023-05-04T07:38:32.559Z,100895.28
2023-05-04T07:40:58.974Z,100894.97
2023-05-04T07:43:25.421Z,100890.56
2023-05-04T07:45:54.822Z,100902.22
2023-05-04T07:48:21.999Z,100898.59
2023-05-04T07:50:50.307Z,100892.44
2023-05-04T07:53:16.846Z,100895.31
2023-05-04T07:55:43.368Z,100882.84
2023-05-04T07:58:10.163Z,100885.09
2023-05-04T08:00:36.636Z,100890.72
2023-05-04T08:03:03.826Z,100882.53
2023-05-04T08:05:30.538Z,100873.91
2023-05-04T08:07:57.218Z,100876.16
2023-05-04T08:10:23.694Z,100870.41
2023-05-04T08:12:50.363Z,100873.03
2023-05-04T08:15:16.921Z,100878.53
2023-05-04T08:17:44.093Z,100867.53
2023-05-04T08:20:11.759Z,100866.09
2023-05-04T08:22:38.805Z,100859.13
2023-05-04T08:25:05.704Z,100852.75
2023-05-04T08:27:33.037Z,100854.66
2023-05-04T08:29:59.506Z,100851.22
2023-05-04T08:32:26.912Z,100853.97
2023-05-04T08:34:53.552Z,100845.78
2023-05-04T08:37:20.285Z,100846.22
2023-05-04T08:39:46.883Z,100846.06
2023-05-04T08:42:13.433Z,100845.06
2023-05-04T08:44:40.692Z,100842.97
2023-05-04T08:47:08.090Z,100836.28
2023-05-04T08:49:34.600Z,100837.22
2023-05-04T08:52:01.143Z,100836.34
2023-05-04T08:54:27.607Z,100836.06
2023-05-04T08:56:55.124Z,100841.75
2023-05-04T08:59:23.058Z,100837.28
2023-05-04T09:01:50.984Z,100838.91
2023-05-04T09:04:18.250Z,100833.72
2023-05-04T09:06:44.939Z,100832.97
2023-05-04T09:09:11.553Z,100828.72
2023-05-04T09:11:39.243Z,100834.34
2023-05-04T09:14:05.619Z,100823.06
2023-05-04T09:16:36.316Z,100825.78
2023-05-04T09:19:03.491Z,100829.72
2023-05-04T09:21:30.958Z,100823.56
2023-05-04T09:23:57.734Z,100818.50
2023-05-04T09:26:28.205Z,100814.50
2023-05-04T09:28:54.678Z,100813.00
2023-05-04T09:31:21.194Z,100814.94
2023-05-04T09:33:48.120Z,100814.75
2023-05-04T09:36:15.413Z,100825.25
2023-05-04T09:38:42.127Z,100818.25
2023-05-04T09:41:08.820Z,100814.31
2023-05-04T09:43:42.094Z,100805.94
2023-05-04T09:46:21.078Z,100813.06
2023-05-04T09:48:53.843Z,100799.34
2023-05-04T09:51:22.357Z,100797.78
2023-05-04T09:53:50.108Z,100796.28
2023-05-04T09:56:35.585Z,100791.59
2023-05-04T09:59:01.994Z,100796.47
2023-05-04T10:01:31.506Z,100783.38
2023-05-04T10:03:58.078Z,100782.75
2023-05-04T10:06:24.624Z,100794.66
2023-05-04T10:08:51.454Z,100790.78
2023-05-04T10:11:19.164Z,100786.69
2023-05-04T10:13:48.719Z,100789.91
2023-05-04T10:16:36.444Z,100785.00
2023-05-04T10:19:22.611Z,100788.13
2023-05-04T10:22:08.449Z,100775.69
2023-05-04T10:24:37.839Z,100772.31
2023-05-04T10:27:10.670Z,100761.97
2023-05-04T10:29:37.218Z,100766.84
2023-05-04T10:32:04.156Z,100757.44
2023-05-04T10:34:34.432Z,100743.53
2023-05-04T10:37:01.255Z,100744.38
2023-05-04T10:39:29.349Z,100744.03
2023-05-04T10:41:59.260Z,100743.53
2023-05-04T10:44:26.504Z,100739.19
2023-05-04T10:47:05.885Z,100731.56
2023-05-04T10:49:32.903Z,100723.13
2023-05-04T10:52:06.120Z,100721.34
2023-05-04T10:54:32.605Z,100718.78
2023-05-04T10:57:09.332Z,100711.66
2023-05-04T10:59:36.842Z,100709.38
2023-05-04T11:02:03.854Z,100705.25
2023-05-04T11:04:30.396Z,100701.53
2023-05-04T11:07:00.569Z,100692.28
2023-05-04T11:09:28.181Z,100692.44
2023-05-04T11:11:54.936Z,100696.84
2023-05-04T11:14:27.974Z,100693.00
2023-05-04T11:17:26.751Z,100698.13
2023-05-04T11:19:54.372Z,100687.78
2023-05-04T11:22:20.902Z,100684.25
2023-05-04T11:24:48.685Z,100682.47
2023-05-04T11:27:24.826Z,100677.09
2023-05-04T11:29:57.965Z,100680.53
2023-05-04T11:32:34.055Z,100667.06
2023-05-04T11:35:01.152Z,100667.22
2023-05-04T11:37:30.529Z,100664.47
2023-05-04T11:39:57.622Z,100662.69
2023-05-04T11:42:24.563Z,100663.38
2023-05-04T11:44:51.260Z,100660.78
2023-05-04T11:47:17.801Z,100663.03
2023-05-04T11:49:44.589Z,100652.66
2023-05-04T11:52:12.125Z,100639.97
2023-05-04T11:54:38.568Z,100644.69
2023-05-04T11:57:05.710Z,100639.66
2023-05-04T11:59:32.166Z,100633.50
2023-05-04T12:01:58.747Z,100626.69
2023-05-04T12:04:30.353Z,100629.59
2023-05-04T12:06:56.836Z,100630.41
2023-05-04T12:09:23.417Z,100630.09
2023-05-04T12:11:56.446Z,100620.16
2023-05-04T12:14:24.601Z,100624.38
2023-05-04T12:16:54.178Z,100622.94
2023-05-04T12:19:20.697Z,100617.91
2023-05-04T12:21:53.574Z,100610.09
2023-05-04T12:24:23.772Z,100616.56
2023-05-04T12:26:50.693Z,100601.16
2023-05-04T12:29:17.121Z,100607.47
2023-05-04T12:31:43.602Z,100599.00
2023-05-04T12:34:10.184Z,100599.50
2023-05-04T12:36:36.893Z,100604.81
2023-05-04T12:39:04.205Z,100597.03
2023-05-04T12:41:31.544Z,100603.50
2023-05-04T12:43:58.370Z,100600.44
2023-05-04T12:46:25.009Z,100591.81
2023-05-04T12:48:51.556Z,100592.78
2023-05-04T12:51:18.098Z,100589.88
2023-05-04T12:53:44.589Z,100587.56
2023-05-04T12:56:11.085Z,100578.97
2023-05-04T12:58:37.593Z,100575.84
2023-05-04T13:01:04.241Z,100568.44
2023-05-04T13:03:30.934Z,100569.38
2023-05-04T13:05:57.713Z,100571.47
2023-05-04T13:08:24.299Z,100561.38
2023-05-04T13:10:50.951Z,100556.34
2023-05-04T13:13:18.069Z,100554.88
2023-05-04T13:15:45.056Z,100565.09
2023-05-04T13:18:12.634Z,100557.97
2023-05-04T13:20:39.744Z,100557.16
2023-05-04T13:23:06.550Z,100550.16
2023-05-04T13:25:33.135Z,100547.06
2023-05-04T13:27:59.660Z,100538.75
2023-05-04T13:30:26.110Z,100539.56
2023-05-04T13:32:52.719Z,100517.47
2023-05-04T13:35:19.269Z,100522.72
2023-05-04T13:37:45.763Z,100527.97
2023-05-04T13:40:12.537Z,100519.53
2023-05-04T13:42:39.132Z,100522.16
2023-05-04T13:45:06.448Z,100506.28
2023-05-04T13:47:33.712Z,100508.84
2023-05-04T13:50:00.385Z,100505.59
2023-05-04T13:52:27.026Z,100503.44
2023-05-04T13:54:53.635Z,100499.53
2023-05-04T13:57:21.921Z,100493.56
2023-05-04T14:00:02.422Z,100489.66
2023-05-04T14:02:37.098Z,100485.28
2023-05-04T14:05:04.155Z,100482.03
2023-05-04T14:07:30.947Z,100485.94
2023-05-04T14:09:58.414Z,100477.44
2023-05-04T14:12:25.174Z,100466.41
2023-05-04T14:14:51.825Z,100457.53
2023-05-04T14:17:18.581Z,100458.31
2023-05-04T14:19:45.065Z,100450.22
2023-05-04T14:22:11.561Z,100450.22
2023-05-04T14:24:38.119Z,100443.91
2023-05-04T14:27:04.706Z,100447.28
2023-05-04T14:29:33.203Z,100435.44
2023-05-04T14:32:00.366Z,100431.88
2023-05-04T14:34:29.096Z,100435.56
2023-05-04T14:36:55.788Z,100435.09
2023-05-04T14:39:22.538Z,100435.09
2023-05-04T14:41:49.160Z,100431.53
2023-05-04T14:44:15.793Z,100430.50
2023-05-04T14:46:42.360Z,100426.81
2023-05-04T14:49:08.871Z,100423.72
2023-05-04T14:51:35.617Z,100423.72
2023-05-04T14:54:02.217Z,100419.00
2023-05-04T14:56:28.913Z,100422.94
2023-05-04T14:58:57.276Z,100413.94
2023-05-04T15:01:25.132Z,100417.41
2023-05-04T15:03:51.849Z,100421.78
2023-05-04T15:06:18.440Z,100414.63
2023-05-04T15:08:44.958Z,100420.63
2023-05-04T15:11:11.568Z,100419.00
2023-05-04T15:13:38.156Z,100421.50
2023-05-04T15:16:04.859Z,100413.88
2023-05-04T15:18:31.634Z,100415.09
2023-05-04T15:20:58.127Z,100411.88
2023-05-04T15:23:24.586Z,100409.91
2023-05-04T15:25:51.137Z,100405.03
2023-05-04T15:28:17.687Z,100406.25
2023-05-04T15:30:45.007Z,100403.56
2023-05-04T15:33:11.584Z,100402.88
2023-05-04T15:35:38.308Z,100402.63
2023-05-04T15:38:04.985Z,100390.63
2023-05-04T15:40:31.732Z,100389.97
2023-05-04T15:42:58.349Z,100388.66
2023-05-04T15:45:25.597Z,100392.25
2023-05-04T15:47:54.261Z,100386.59
2023-05-04T15:50:21.244Z,100379.84
2023-05-04T15:52:47.761Z,100382.25
2023-05-04T15:55:25.456Z,100379.19
2023-05-04T15:57:53.942Z,100376.91
2023-05-04T16:00:21.259Z,100372.84
2023-05-04T16:02:48.146Z,100373.38
2023-05-04T16:05:14.918Z,100370.16
2023-05-04T16:07:41.592Z,100363.00
2023-05-04T16:10:08.740Z,100367.59
2023-05-04T16:12:35.837Z,100368.72
2023-05-04T16:15:02.551Z,100367.91
2023-05-04T16:17:30.525Z,100371.22
2023-05-04T16:19:57.100Z,100361.81
2023-05-04T16:22:23.664Z,100366.84
2023-05-04T16:24:50.179Z,100368.81
2023-05-04T16:27:16.778Z,100365.25
2023-05-04T16:29:43.348Z,100361.66
2023-05-04T16:32:09.906Z,100354.66
2023-05-04T16:34:36.467Z,100353.53
2023-05-04T16:37:03.139Z,100355.44
2023-05-04T16:39:31.673Z,100360.19
2023-05-04T16:41:58.602Z,100356.28
2023-05-04T16:44:25.719Z,100353.97
2023-05-04T16:46:54.060Z,100350.53
2023-05-04T16:49:24.345Z,100349.25
2023-05-04T16:51:51.028Z,100340.16
2023-05-04T16:54:19.097Z,100346.97
2023-05-04T16:56:45.783Z,100339.66
2023-05-04T16:59:14.405Z,100335.88
2023-05-04T17:01:41.315Z,100341.53
2023-05-04T17:04:09.071Z,100335.41
2023-05-04T17:06:35.845Z,100331.97
2023-05-04T17:09:02.576Z,100331.97
2023-05-04T17:11:29.093Z,100326.09
2023-05-04T17:13:56.025Z,100331.16
2023-05-04T17:16:22.601Z,100325.28
2023-05-04T17:18:49.257Z,100327.69
2023-05-04T17:21:16.341Z,100336.00
2023-05-04T17:23:43.124Z,100333.91
2023-05-04T17:26:10.422Z,100328.72
2023-05-04T17:28:37.070Z,100338.97
2023-05-04T17:31:03.573Z,100333.88
2023-05-04T17:33:30.322Z,100339.41
2023-05-04T17:35:57.265Z,100336.94
2023-05-04T17:38:23.832Z,100337.00
2023-05-04T17:40:50.492Z,100352.22
2023-05-04T17:43:17.136Z,100348.44
2023-05-04T17:45:44.028Z,100346.97
2023-05-04T17:48:10.722Z,100346.50
2023-05-04T17:50:37.929Z,100344.69
2023-05-04T17:53:04.484Z,100342.59
2023-05-04T17:55:31.079Z,100352.91
2023-05-04T17:57:57.605Z,100351.97
2023-05-04T18:00:24.215Z,100350.41
2023-05-04T18:02:50.922Z,100356.41
2023-05-04T18:05:17.504Z,100357.91
2023-05-04T18:07:44.042Z,100359.41
2023-05-04T18:10:10.820Z,100352.75
2023-05-04T18:12:38.306Z,100349.91
2023-05-04T18:15:08.269Z,100361.00
2023-05-04T18:17:38.182Z,100362.00
2023-05-04T18:20:05.800Z,100360.38
2023-05-04T18:22:32.623Z,100357.94
2023-05-04T18:24:59.195Z,100367.72
2023-05-04T18:27:25.949Z,100370.47
2023-05-04T18:29:52.575Z,100376.66
2023-05-04T18:32:19.155Z,100384.59
2023-05-04T18:34:51.145Z,100385.88
2023-05-04T18:37:17.917Z,100381.78
2023-05-04T18:39:44.652Z,100381.50
2023-05-04T18:42:11.312Z,100383.44
2023-05-04T18:44:37.974Z,100393.16
2023-05-04T18:47:04.908Z,100397.19
2023-05-04T18:49:31.592Z,100402.06
2023-05-04T18:51:58.178Z,100400.91
2023-05-04T18:54:24.811Z,100403.31
2023-05-04T18:56:51.309Z,100406.78
2023-05-04T18:59:18.119Z,100411.63
2023-05-04T19:01:48.749Z,100411.94
2023-05-04T19:04:15.348Z,100415.69
2023-05-04T19:06:42.118Z,100413.13
2023-05-04T19:09:08.953Z,100427.38
2023-05-04T19:11:35.560Z,100424.44
2023-05-04T19:14:02.193Z,100433.69
2023-05-04T19:16:28.861Z,100440.31
2023-05-04T19:18:55.809Z,100441.41
2023-05-04T19:21:22.628Z,100433.34
2023-05-04T19:23:49.287Z,100433.81
2023-05-04T19:26:16.682Z,100430.09
2023-05-04T19:28:43.428Z,100433.63
2023-05-04T19:31:10.046Z,100428.13
2023-05-04T19:33:47.980Z,100435.25
2023-05-04T19:36:16.308Z,100438.78
2023-05-04T19:38:43.086Z,100435.66
2023-05-04T19:41:09.812Z,100433.97
2023-05-04T19:43:38.442Z,100436.78
2023-05-04T19:46:08.205Z,100440.50
2023-05-04T19:48:34.946Z,100436.00
2023-05-04T19:51:02.252Z,100434.53
2023-05-04T19:53:29.174Z,100432.13
2023-05-04T19:55:55.931Z,100438.44
2023-05-04T19:58:25.897Z,100431.97
2023-05-04T20:00:53.489Z,100436.50
2023-05-04T20:03:24.269Z,100442.69
2023-05-04T20:05:51.761Z,100432.63
2023-05-04T20:08:18.619Z,100429.38
2023-05-04T20:10:45.175Z,100435.53
2023-05-04T20:13:11.850Z,100430.16
2023-05-04T20:15:38.476Z,100435.81
2023-05-04T20:18:05.316Z,100438.13
2023-05-04T20:20:31.896Z,100430.00
2023-05-04T20:22:58.411Z,100432.94
2023-05-04T20:25:24.975Z,100434.53
2023-05-04T20:27:52.639Z,100440.69
2023-05-04T20:30:19.315Z,100436.31
2023-05-04T20:32:47.481Z,100441.63
2023-05-04T20:35:14.274Z,100436.66
2023-05-04T20:37:40.859Z,100429.34
2023-05-04T20:40:08.445Z,100432.44
2023-05-04T20:42:35.185Z,100429.69
2023-05-04T20:45:01.780Z,100431.78
2023-05-04T20:47:28.633Z,100431.28
2023-05-04T20:49:55.341Z,100430.34
2023-05-04T20:52:22.151Z,100423.06
2023-05-04T20:54:48.630Z,100430.03
2023-05-04T20:57:15.374Z,100424.53
2023-05-04T20:59:41.957Z,100425.97
2023-05-04T21:02:08.787Z,100432.00
2023-05-04T21:04:35.394Z,100421.75
2023-05-04T21:07:01.957Z,100421.44
2023-05-04T21:09:28.507Z,100419.66
2023-05-04T21:11:55.080Z,100419.34
2023-05-04T21:14:21.704Z,100424.72
2023-05-04T21:16:48.240Z,100427.47
2023-05-04T21:19:14.783Z,100424.88
2023-05-04T21:21:41.633Z,100416.59
2023-05-04T21:24:13.769Z,100417.56
2023-05-04T21:26:40.389Z,100423.41
2023-05-04T21:29:10.212Z,100426.47
2023-05-04T21:31:36.766Z,100420.66
2023-05-04T21:34:03.449Z,100425.53
2023-05-04T21:36:29.986Z,100422.13
2023-05-04T21:38:56.539Z,100419.34
2023-05-04T21:41:23.013Z,100416.09
2023-05-04T21:43:49.611Z,100425.22
2023-05-04T21:46:16.335Z,100431.03
2023-05-04T21:48:42.900Z,100422.47
2023-05-04T21:51:09.422Z,100427.81
2023-05-04T21:53:35.934Z,100427.81
2023-05-04T21:56:08.898Z,100424.22
2023-05-04T21:58:37.111Z,100421.16
2023-05-04T22:01:03.750Z,100423.75
2023-05-04T22:03:30.267Z,100430.88
2023-05-04T22:05:57.850Z,100427.81
2023-05-04T22:08:24.878Z,100435.59
2023-05-04T22:10:51.622Z,100432.34
2023-05-04T22:13:18.070Z,100428.59
2023-05-04T22:15:49.920Z,100431.84
2023-05-04T22:18:17.001Z,100431.69
2023-05-04T22:20:43.501Z,100431.22
2023-05-04T22:23:09.976Z,100434.94
2023-05-04T22:25:36.444Z,100434.09
2023-05-04T22:28:03.141Z,100433.00
2023-05-04T22:30:29.589Z,100438.84
2023-05-04T22:32:56.207Z,100442.72
2023-05-04T22:35:22.675Z,100440.13
2023-05-04T22:37:49.370Z,100435.59
2023-05-04T22:40:15.935Z,100434.78
2023-05-04T22:42:44.878Z,100437.88
2023-05-04T22:45:12.880Z,100445.19
2023-05-04T22:47:39.307Z,100440.00
2023-05-04T22:50:06.364Z,100450.53
2023-05-04T22:52:33.043Z,100450.53
2023-05-04T22:54:59.456Z,100452.47
2023-05-04T22:57:25.989Z,100451.31
2023-05-04T22:59:52.500Z,100452.75
2023-05-04T23:02:19.145Z,100456.66
2023-05-04T23:04:45.704Z,100448.38
2023-05-04T23:07:12.174Z,100461.41
2023-05-04T23:09:45.331Z,100459.16
2023-05-04T23:12:12.402Z,100466.56
2023-05-04T23:14:38.878Z,100466.75
2023-05-04T23:17:05.381Z,100472.94
2023-05-04T23:19:32.136Z,100465.44
2023-05-04T23:21:58.589Z,100466.75
2023-05-04T23:24:25.083Z,100460.56
2023-05-04T23:26:52.272Z,100467.53
2023-05-04T23:29:21.564Z,100467.22
2023-05-04T23:31:48.014Z,100465.13
2023-05-04T23:34:14.480Z,100462.34
2023-05-04T23:36:41.119Z,100463.81
2023-05-04T23:39:07.728Z,100459.75
2023-05-04T23:41:34.117Z,100460.72
2023-05-04T23:44:00.654Z,100464.44
2023-05-04T23:46:27.092Z,100469.00
2023-05-04T23:48:53.523Z,100462.81
2023-05-04T23:51:21.157Z,100464.63
2023-05-04T23:53:47.647Z,100456.69
2023-05-04T23:56:14.454Z,100458.31
2023-05-04T23:58:41.104Z,100460.41
